createdAt,value
2022-09-15T00:00:34.300Z,13.32
2022-09-15T00:01:33.647Z,13.25
2022-09-15T00:02:34.808Z,13.40
2022-09-15T00:03:33.679Z,13.41
2022-09-15T00:04:33.634Z,13.40
2022-09-15T00:05:33.584Z,13.29
2022-09-15T00:06:33.689Z,13.33
2022-09-15T00:07:34.320Z,13.36
2022-09-15T00:08:33.652Z,13.27
2022-09-15T00:09:33.627Z,13.18
2022-09-15T00:10:33.524Z,13.15
2022-09-15T00:11:33.517Z,13.12
2022-09-15T00:12:33.396Z,13.12
2022-09-15T00:13:33.459Z,13.12
2022-09-15T00:14:33.582Z,13.11
2022-09-15T00:15:33.431Z,13.12
2022-09-15T00:16:33.551Z,13.09
2022-09-15T00:17:33.506Z,13.11
2022-09-15T00:18:33.509Z,13.12
2022-09-15T00:19:34.569Z,13.09
2022-09-15T00:20:33.508Z,13.17
2022-09-15T00:21:34.348Z,13.12
2022-09-15T00:22:33.452Z,13.07
2022-09-15T00:23:33.434Z,13.02
2022-09-15T00:24:34.439Z,13.06
2022-09-15T00:25:34.549Z,13.03
2022-09-15T00:26:33.427Z,13.06
2022-09-15T00:27:34.307Z,13.12
2022-09-15T00:28:33.464Z,13.07
2022-09-15T00:29:33.480Z,13.00
2022-09-15T00:30:33.375Z,13.14
2022-09-15T00:31:33.308Z,13.09
2022-09-15T00:32:33.297Z,13.00
2022-09-15T00:33:33.313Z,12.99
2022-09-15T00:34:33.310Z,12.97
2022-09-15T00:35:33.290Z,13.03
2022-09-15T00:36:33.325Z,13.02
2022-09-15T00:37:33.287Z,13.06
2022-09-15T00:38:33.328Z,13.09
2022-09-15T00:39:33.335Z,13.09
2022-09-15T00:40:33.381Z,13.04
2022-09-15T00:41:33.386Z,13.17
2022-09-15T00:42:33.297Z,13.12
2022-09-15T00:43:33.295Z,13.09
2022-09-15T00:44:33.311Z,13.17
2022-09-15T00:45:33.296Z,13.20
2022-09-15T00:46:34.315Z,13.22
2022-09-15T00:47:33.291Z,13.20
2022-09-15T00:48:34.305Z,13.22
2022-09-15T00:49:33.250Z,13.21
2022-09-15T00:50:33.281Z,13.18
2022-09-15T00:51:33.271Z,13.24
2022-09-15T00:52:33.288Z,13.17
2022-09-15T00:53:33.198Z,13.32
2022-09-15T00:54:33.136Z,13.25
2022-09-15T00:55:33.192Z,13.27
2022-09-15T00:56:33.216Z,13.36
2022-09-15T00:57:33.273Z,13.36
2022-09-15T00:58:33.208Z,13.36
2022-09-15T00:59:33.213Z,13.38
2022-09-15T01:00:33.265Z,13.49
2022-09-15T01:01:33.335Z,13.33
2022-09-15T01:02:33.317Z,13.38
2022-09-15T01:03:33.208Z,13.46
2022-09-15T01:04:33.171Z,13.40
2022-09-15T01:05:33.325Z,13.46
2022-09-15T01:06:33.147Z,13.36
2022-09-15T01:07:33.034Z,13.40
2022-09-15T01:08:33.076Z,13.40
2022-09-15T01:09:33.161Z,13.41
2022-09-15T01:10:33.045Z,13.47
2022-09-15T01:11:33.046Z,13.55
2022-09-15T01:12:33.007Z,13.47
2022-09-15T01:13:33.166Z,13.41
2022-09-15T01:14:33.083Z,13.37
2022-09-15T01:15:33.149Z,13.43
2022-09-15T01:16:33.147Z,13.44
2022-09-15T01:17:33.069Z,13.44
2022-09-15T01:18:33.032Z,13.49
2022-09-15T01:19:33.088Z,13.43
2022-09-15T01:20:33.042Z,13.49
2022-09-15T01:21:33.037Z,13.49
2022-09-15T01:22:33.015Z,13.46
2022-09-15T01:23:33.026Z,13.51
2022-09-15T01:24:33.079Z,13.51
2022-09-15T01:25:33.017Z,13.47
2022-09-15T01:26:32.986Z,13.55
2022-09-15T01:27:42.541Z,13.52
2022-09-15T01:28:34.907Z,13.46
2022-09-15T01:29:32.958Z,13.58
2022-09-15T01:30:32.948Z,13.47
2022-09-15T01:31:32.921Z,13.41
2022-09-15T01:32:33.869Z,13.43
2022-09-15T01:33:32.864Z,13.33
2022-09-15T01:34:32.959Z,13.25
2022-09-15T01:35:33.444Z,13.20
2022-09-15T01:36:32.964Z,13.29
2022-09-15T01:37:32.921Z,13.25
2022-09-15T01:38:32.974Z,13.33
2022-09-15T01:39:32.943Z,13.22
2022-09-15T01:40:32.877Z,13.25
2022-09-15T01:41:32.924Z,13.33
2022-09-15T01:42:32.891Z,13.37
2022-09-15T01:43:32.877Z,13.37
2022-09-15T01:44:32.904Z,13.38
2022-09-15T01:45:32.943Z,13.49
2022-09-15T01:46:32.880Z,13.36
2022-09-15T01:47:32.813Z,13.55
2022-09-15T01:48:32.781Z,13.47
2022-09-15T01:49:32.868Z,13.63
2022-09-15T01:50:32.890Z,13.61
2022-09-15T01:51:32.832Z,13.67
2022-09-15T01:52:32.878Z,13.69
2022-09-15T01:53:32.718Z,13.59
2022-09-15T01:54:32.804Z,13.70
2022-09-15T01:55:32.815Z,13.71
2022-09-15T01:56:32.777Z,13.76
2022-09-15T01:57:32.921Z,13.74
2022-09-15T01:58:32.845Z,13.79
2022-09-15T01:59:32.820Z,13.77
2022-09-15T02:00:32.787Z,13.77
2022-09-15T02:01:32.879Z,13.83
2022-09-15T02:02:32.927Z,13.77
2022-09-15T02:03:33.018Z,13.83
2022-09-15T02:04:32.649Z,13.77
2022-09-15T02:05:32.668Z,13.80
2022-09-15T02:06:32.615Z,13.79
2022-09-15T02:07:32.827Z,13.74
2022-09-15T02:08:32.675Z,13.71
2022-09-15T02:09:32.657Z,13.76
2022-09-15T02:10:33.609Z,13.88
2022-09-15T02:11:32.612Z,13.89
2022-09-15T02:12:32.679Z,13.77
2022-09-15T02:13:32.658Z,13.88
2022-09-15T02:14:32.793Z,13.84
2022-09-15T02:15:32.661Z,13.83
2022-09-15T02:16:32.682Z,13.87
2022-09-15T02:17:32.668Z,13.84
2022-09-15T02:18:32.662Z,13.91
2022-09-15T02:19:32.657Z,13.94
2022-09-15T02:20:32.644Z,13.89
2022-09-15T02:21:32.623Z,13.92
2022-09-15T02:22:32.595Z,13.91
2022-09-15T02:23:32.546Z,13.91
2022-09-15T02:24:32.493Z,14.02
2022-09-15T02:25:32.635Z,14.10
2022-09-15T02:26:32.507Z,14.06
2022-09-15T02:27:32.487Z,14.06
2022-09-15T02:28:32.486Z,14.12
2022-09-15T02:29:32.486Z,14.07
2022-09-15T02:30:32.491Z,14.02
2022-09-15T02:31:33.679Z,14.12
2022-09-15T02:32:32.545Z,14.07
2022-09-15T02:33:32.551Z,14.06
2022-09-15T02:34:32.513Z,14.13
2022-09-15T02:35:32.576Z,14.07
2022-09-15T02:36:32.530Z,14.13
2022-09-15T02:37:32.513Z,14.07
2022-09-15T02:38:32.489Z,14.12
2022-09-15T02:39:32.532Z,14.06
2022-09-15T02:40:32.594Z,14.13
2022-09-15T02:41:32.509Z,14.07
2022-09-15T02:42:32.386Z,14.14
2022-09-15T02:43:32.375Z,14.01
2022-09-15T02:44:32.368Z,14.02
2022-09-15T02:45:32.450Z,14.10
2022-09-15T02:46:32.440Z,14.12
2022-09-15T02:47:32.408Z,14.14
2022-09-15T02:48:32.375Z,14.09
2022-09-15T02:49:32.353Z,14.02
2022-09-15T02:50:32.331Z,13.95
2022-09-15T02:51:32.412Z,14.09
2022-09-15T02:52:32.457Z,14.01
2022-09-15T02:53:32.364Z,14.07
2022-09-15T02:54:32.397Z,13.96
2022-09-15T02:55:32.384Z,13.92
2022-09-15T02:56:32.409Z,13.76
2022-09-15T02:57:32.414Z,13.79
2022-09-15T02:58:32.383Z,13.65
2022-09-15T02:59:32.377Z,13.76
2022-09-15T03:00:32.412Z,13.74
2022-09-15T03:01:32.343Z,13.74
2022-09-15T03:02:32.352Z,13.77
2022-09-15T03:03:32.716Z,13.69
2022-09-15T03:04:32.243Z,13.79
2022-09-15T03:05:32.232Z,13.70
2022-09-15T03:06:32.373Z,13.77
2022-09-15T03:07:32.238Z,13.81
2022-09-15T03:08:32.360Z,13.79
2022-09-15T03:09:32.860Z,13.65
2022-09-15T03:10:32.329Z,13.74
2022-09-15T03:11:32.360Z,13.67
2022-09-15T03:12:32.272Z,13.59
2022-09-15T03:13:32.355Z,13.62
2022-09-15T03:14:32.276Z,13.62
2022-09-15T03:15:32.239Z,13.59
2022-09-15T03:16:32.332Z,13.62
2022-09-15T03:17:32.278Z,13.55
2022-09-15T03:18:32.200Z,13.70
2022-09-15T03:19:32.167Z,13.67
2022-09-15T03:20:32.209Z,13.69
2022-09-15T03:21:32.141Z,13.65
2022-09-15T03:22:32.159Z,13.56
2022-09-15T03:23:32.098Z,13.65
2022-09-15T03:24:32.101Z,13.70
2022-09-15T03:25:32.141Z,13.63
2022-09-15T03:26:32.140Z,13.70
2022-09-15T03:27:32.189Z,13.70
2022-09-15T03:28:32.153Z,13.71
2022-09-15T03:29:32.187Z,13.76
2022-09-15T03:30:32.238Z,13.76
2022-09-15T03:31:32.234Z,13.73
2022-09-15T03:32:32.151Z,13.56
2022-09-15T03:33:32.282Z,13.52
2022-09-15T03:34:32.174Z,13.46
2022-09-15T03:35:32.106Z,13.51
2022-09-15T03:36:32.135Z,13.52
2022-09-15T03:37:32.077Z,13.55
2022-09-15T03:38:32.124Z,13.37
2022-09-15T03:39:31.994Z,13.43
2022-09-15T03:40:32.123Z,13.43
2022-09-15T03:41:32.112Z,13.38
2022-09-15T03:42:32.080Z,13.38
2022-09-15T03:43:32.023Z,13.30
2022-09-15T03:44:32.069Z,13.24
2022-09-15T03:45:32.065Z,13.25
2022-09-15T03:46:32.060Z,13.36
2022-09-15T03:47:32.142Z,13.41
2022-09-15T03:48:32.003Z,13.18
2022-09-15T03:49:31.994Z,13.27
2022-09-15T03:50:32.741Z,13.47
2022-09-15T03:51:31.994Z,13.44
2022-09-15T03:52:32.022Z,13.41
2022-09-15T03:53:32.008Z,13.49
2022-09-15T03:54:32.049Z,13.52
2022-09-15T03:55:32.114Z,13.46
2022-09-15T03:56:31.932Z,13.54
2022-09-15T03:57:31.866Z,13.54
2022-09-15T03:58:31.939Z,13.46
2022-09-15T03:59:31.875Z,13.44
2022-09-15T04:00:31.899Z,13.55
2022-09-15T04:01:31.932Z,13.54
2022-09-15T04:02:31.812Z,13.61
2022-09-15T04:03:32.013Z,13.55
2022-09-15T04:04:31.840Z,13.61
2022-09-15T04:05:31.876Z,13.55
2022-09-15T04:06:31.892Z,13.63
2022-09-15T04:07:31.896Z,13.63
2022-09-15T04:08:31.848Z,13.62
2022-09-15T04:09:31.888Z,13.59
2022-09-15T04:10:31.923Z,13.55
2022-09-15T04:11:31.879Z,13.62
2022-09-15T04:12:31.838Z,13.56
2022-09-15T04:13:31.846Z,13.63
2022-09-15T04:14:31.852Z,13.62
2022-09-15T04:15:31.866Z,13.65
2022-09-15T04:16:31.907Z,13.62
2022-09-15T04:17:31.721Z,13.71
2022-09-15T04:18:31.714Z,13.67
2022-09-15T04:19:31.706Z,13.73
2022-09-15T04:20:31.836Z,13.70
2022-09-15T04:21:31.799Z,13.65
2022-09-15T04:22:31.786Z,13.54
2022-09-15T04:23:31.793Z,13.69
2022-09-15T04:24:31.861Z,13.69
2022-09-15T04:25:31.746Z,13.67
2022-09-15T04:26:31.737Z,13.63
2022-09-15T04:27:31.715Z,13.61
2022-09-15T04:28:31.727Z,13.61
2022-09-15T04:29:31.699Z,13.58
2022-09-15T04:30:31.715Z,13.51
2022-09-15T04:31:31.812Z,13.58
2022-09-15T04:32:31.695Z,13.52
2022-09-15T04:33:31.714Z,13.59
2022-09-15T04:34:31.625Z,13.59
2022-09-15T04:35:31.612Z,13.62
2022-09-15T04:36:31.749Z,13.61
2022-09-15T04:37:31.770Z,13.56
2022-09-15T04:38:31.742Z,13.61
2022-09-15T04:39:31.672Z,13.59
2022-09-15T04:40:31.783Z,13.62
2022-09-15T04:41:31.630Z,13.67
2022-09-15T04:42:31.716Z,13.69
2022-09-15T04:43:31.657Z,13.58
2022-09-15T04:44:31.634Z,13.63
2022-09-15T04:45:31.624Z,13.58
2022-09-15T04:46:31.616Z,13.59
2022-09-15T04:47:31.607Z,13.59
2022-09-15T04:48:31.589Z,13.49
2022-09-15T04:49:31.585Z,13.49
2022-09-15T04:50:31.486Z,13.43
2022-09-15T04:51:31.476Z,13.47
2022-09-15T04:52:31.452Z,13.46
2022-09-15T04:53:31.568Z,13.44
2022-09-15T04:54:31.586Z,13.43
2022-09-15T04:55:31.534Z,13.38
2022-09-15T04:57:39.105Z,13.43
2022-09-15T04:58:40.289Z,13.36
2022-09-15T04:59:40.236Z,13.41
2022-09-15T05:00:40.279Z,13.38
2022-09-15T05:01:40.306Z,13.36
2022-09-15T05:02:40.294Z,13.32
2022-09-15T05:03:40.499Z,13.27
2022-09-15T05:04:40.221Z,13.27
2022-09-15T05:05:40.230Z,13.22
2022-09-15T05:06:40.223Z,13.11
2022-09-15T05:07:40.290Z,13.14
2022-09-15T05:08:40.319Z,13.14
2022-09-15T05:09:40.330Z,13.12
2022-09-15T05:10:40.257Z,13.12
2022-09-15T05:11:40.326Z,13.12
2022-09-15T05:12:40.269Z,13.12
2022-09-15T05:13:40.253Z,13.09
2022-09-15T05:14:40.271Z,13.12
2022-09-15T05:15:40.251Z,13.09
2022-09-15T05:16:40.344Z,13.06
2022-09-15T05:17:40.127Z,12.99
2022-09-15T05:18:40.125Z,12.95
2022-09-15T05:19:40.129Z,12.93
2022-09-15T05:20:40.159Z,12.77
2022-09-15T05:21:40.133Z,12.84
2022-09-15T05:22:41.945Z,12.78
2022-09-15T05:23:41.516Z,12.75
2022-09-15T05:24:40.160Z,12.84
2022-09-15T05:25:40.203Z,12.85
2022-09-15T05:26:40.155Z,12.82
2022-09-15T05:27:40.159Z,12.88
2022-09-15T05:28:40.112Z,12.93
2022-09-15T05:29:40.186Z,12.85
2022-09-15T05:30:44.095Z,12.87
2022-09-15T05:31:42.270Z,12.89
2022-09-15T05:32:40.106Z,12.78
2022-09-15T05:33:40.139Z,12.79
2022-09-15T05:34:40.075Z,12.78
2022-09-15T05:35:40.018Z,12.71
2022-09-15T05:36:40.014Z,12.82
2022-09-15T05:37:40.014Z,12.89
2022-09-15T05:38:40.009Z,12.87
2022-09-15T05:39:39.999Z,12.85
2022-09-15T05:40:40.132Z,12.87
2022-09-15T05:41:39.978Z,12.93
2022-09-15T05:42:39.996Z,12.84
2022-09-15T05:43:39.963Z,12.82
2022-09-15T05:44:40.046Z,12.87
2022-09-15T05:45:40.004Z,12.87
2022-09-15T05:46:40.051Z,12.67
2022-09-15T05:47:40.038Z,12.69
2022-09-15T05:48:40.054Z,12.64
2022-09-15T05:49:40.738Z,12.60
2022-09-15T05:50:40.761Z,12.57
2022-09-15T05:51:39.965Z,12.57
2022-09-15T05:52:40.016Z,12.54
2022-09-15T05:53:40.013Z,12.57
2022-09-15T05:54:40.053Z,12.48
2022-09-15T05:55:40.045Z,12.49
2022-09-15T05:56:39.941Z,12.51
2022-09-15T05:57:39.948Z,12.49
2022-09-15T05:58:39.866Z,12.57
2022-09-15T05:59:39.819Z,12.52
2022-09-15T06:00:39.896Z,12.64
2022-09-15T06:01:39.845Z,12.70
2022-09-15T06:02:39.874Z,12.74
2022-09-15T06:03:39.843Z,12.85
2022-09-15T06:04:40.067Z,12.88
2022-09-15T06:05:39.824Z,12.97
2022-09-15T06:06:39.861Z,12.99
2022-09-15T06:07:39.843Z,13.02
2022-09-15T06:08:43.772Z,13.15
2022-09-15T06:09:40.844Z,13.04
2022-09-15T06:10:39.844Z,13.15
2022-09-15T06:11:39.844Z,13.04
2022-09-15T06:12:39.813Z,13.11
2022-09-15T06:13:39.891Z,13.14
2022-09-15T06:14:39.846Z,13.15
2022-09-15T06:15:39.858Z,13.21
2022-09-15T06:16:39.805Z,13.18
2022-09-15T06:17:39.812Z,13.12
2022-09-15T06:18:39.807Z,13.06
2022-09-15T06:19:39.726Z,13.15
2022-09-15T06:20:39.697Z,13.17
2022-09-15T06:21:39.666Z,13.32
2022-09-15T06:22:39.678Z,13.30
2022-09-15T06:23:39.675Z,13.36
2022-09-15T06:24:39.748Z,13.37
2022-09-15T06:25:39.705Z,13.46
2022-09-15T06:26:40.012Z,13.43
2022-09-15T06:27:39.646Z,13.43
2022-09-15T06:28:39.737Z,13.36
2022-09-15T06:29:39.709Z,13.41
2022-09-15T06:30:39.846Z,13.41
2022-09-15T06:31:39.739Z,13.43
2022-09-15T06:32:39.799Z,13.46
2022-09-15T06:33:39.730Z,13.46
2022-09-15T06:34:39.703Z,13.58
2022-09-15T06:35:39.692Z,13.54
2022-09-15T06:36:39.763Z,13.47
2022-09-15T06:37:39.658Z,13.52
2022-09-15T06:38:39.725Z,13.62
2022-09-15T06:39:39.562Z,13.58
2022-09-15T06:40:39.539Z,13.59
2022-09-15T06:41:58.767Z,13.76
2022-09-15T06:42:41.623Z,13.77
2022-09-15T06:43:39.521Z,13.74
2022-09-15T06:44:39.591Z,13.74
2022-09-15T06:45:39.634Z,13.80
2022-09-15T06:46:39.566Z,13.91
2022-09-15T06:47:39.607Z,13.92
2022-09-15T06:48:39.567Z,13.89
2022-09-15T06:49:39.520Z,14.01
2022-09-15T06:50:39.569Z,13.89
2022-09-15T06:51:39.546Z,13.91
2022-09-15T06:52:39.596Z,13.94
2022-09-15T06:53:39.488Z,14.04
2022-09-15T06:54:39.409Z,13.91
2022-09-15T06:55:39.388Z,13.87
2022-09-15T06:56:39.551Z,13.91
2022-09-15T06:57:39.542Z,14.07
2022-09-15T06:58:39.546Z,13.96
2022-09-15T06:59:39.564Z,14.16
2022-09-15T07:00:39.478Z,14.16
2022-09-15T07:01:40.531Z,14.14
2022-09-15T07:02:39.501Z,14.13
2022-09-15T07:03:39.523Z,14.25
2022-09-15T07:04:39.457Z,14.31
2022-09-15T07:05:39.454Z,14.32
2022-09-15T07:06:39.609Z,14.34
2022-09-15T07:07:39.439Z,14.34
2022-09-15T07:08:39.412Z,14.39
2022-09-15T07:09:41.297Z,14.47
2022-09-15T07:10:40.418Z,14.61
2022-09-15T07:11:39.405Z,14.64
2022-09-15T07:12:39.449Z,14.78
2022-09-15T07:13:39.287Z,14.64
2022-09-15T07:14:39.328Z,14.64
2022-09-15T07:15:39.363Z,14.62
2022-09-15T07:16:39.404Z,14.64
2022-09-15T07:17:39.287Z,14.78
2022-09-15T07:18:43.021Z,14.88
2022-09-15T07:19:40.298Z,14.78
2022-09-15T07:20:39.378Z,14.74
2022-09-15T07:21:39.305Z,14.80
2022-09-15T07:22:39.307Z,14.90
2022-09-15T07:23:39.279Z,14.98
2022-09-15T07:24:39.327Z,15.09
2022-09-15T07:25:39.366Z,14.93
2022-09-15T07:26:39.307Z,15.03
2022-09-15T07:27:39.265Z,15.02
2022-09-15T07:28:39.288Z,14.95
2022-09-15T07:29:39.248Z,15.03
2022-09-15T07:30:39.302Z,15.05
2022-09-15T07:31:39.304Z,15.06
2022-09-15T07:32:39.204Z,15.09
2022-09-15T07:33:39.220Z,14.95
2022-09-15T07:34:39.168Z,15.02
2022-09-15T07:35:39.140Z,15.06
2022-09-15T07:36:39.235Z,15.24
2022-09-15T07:37:39.120Z,15.23
2022-09-15T07:38:39.131Z,15.17
2022-09-15T07:39:39.211Z,15.21
2022-09-15T07:40:39.218Z,15.24
2022-09-15T07:41:39.274Z,15.38
2022-09-15T07:42:39.138Z,15.46
2022-09-15T07:43:39.151Z,15.41
2022-09-15T07:44:39.107Z,15.41
2022-09-15T07:45:39.168Z,15.43
2022-09-15T07:46:39.134Z,15.36
2022-09-15T07:47:39.146Z,15.21
2022-09-15T07:48:39.033Z,15.20
2022-09-15T07:49:39.017Z,15.23
2022-09-15T07:50:39.115Z,15.27
2022-09-15T07:51:39.103Z,15.33
2022-09-15T07:52:39.165Z,15.26
2022-09-15T07:53:38.948Z,15.28
2022-09-15T07:54:39.053Z,15.45
2022-09-15T07:55:39.178Z,15.42
2022-09-15T07:56:39.043Z,15.51
2022-09-15T07:57:39.058Z,15.49
2022-09-15T07:58:39.092Z,15.46
2022-09-15T07:59:41.250Z,15.49
2022-09-15T08:00:40.094Z,15.54
2022-09-15T08:01:39.068Z,15.49
2022-09-15T08:02:39.069Z,15.56
2022-09-15T08:03:39.043Z,15.67
2022-09-15T08:04:39.000Z,15.79
2022-09-15T08:05:43.542Z,15.96
2022-09-15T08:06:40.957Z,15.93
2022-09-15T08:07:38.991Z,16.09
2022-09-15T08:08:38.973Z,16.01
2022-09-15T08:09:38.920Z,15.89
2022-09-15T08:10:38.833Z,15.96
2022-09-15T08:11:38.894Z,15.94
2022-09-15T08:12:38.856Z,15.96
2022-09-15T08:13:38.862Z,15.94
2022-09-15T08:14:38.900Z,15.92
2022-09-15T08:15:39.790Z,15.92
2022-09-15T08:16:38.881Z,15.86
2022-09-15T08:17:38.904Z,15.76
2022-09-15T08:18:38.899Z,15.86
2022-09-15T08:19:38.907Z,16.03
2022-09-15T08:20:38.879Z,16.18
2022-09-15T08:21:38.915Z,16.25
2022-09-15T08:22:38.879Z,16.27
2022-09-15T08:23:38.907Z,16.23
2022-09-15T08:24:38.828Z,16.37
2022-09-15T08:25:39.026Z,16.26
2022-09-15T08:26:39.910Z,16.41
2022-09-15T08:27:38.818Z,16.48
2022-09-15T08:28:38.777Z,16.37
2022-09-15T08:29:38.779Z,16.31
2022-09-15T08:30:38.774Z,16.23
2022-09-15T08:31:38.779Z,16.16
2022-09-15T08:32:38.691Z,16.16
2022-09-15T08:33:43.174Z,16.16
2022-09-15T08:34:40.789Z,16.25
2022-09-15T08:35:38.754Z,16.25
2022-09-15T08:36:38.805Z,16.41
2022-09-15T08:37:38.742Z,16.38
2022-09-15T08:38:38.753Z,16.45
2022-09-15T08:39:38.753Z,16.55
2022-09-15T08:40:38.754Z,16.65
2022-09-15T08:41:39.347Z,16.70
2022-09-15T08:42:42.843Z,16.86
2022-09-15T08:43:40.820Z,17.00
2022-09-15T08:44:38.770Z,17.13
2022-09-15T08:45:38.728Z,17.28
2022-09-15T08:46:38.848Z,17.17
2022-09-15T08:47:38.715Z,17.32
2022-09-15T08:48:38.621Z,17.22
2022-09-15T08:49:50.999Z,17.29
2022-09-15T08:50:40.619Z,17.30
2022-09-15T08:51:38.601Z,17.35
2022-09-15T08:52:38.702Z,17.18
2022-09-15T08:53:38.629Z,17.11
2022-09-15T08:54:39.102Z,17.17
2022-09-15T08:55:38.675Z,17.07
2022-09-15T08:56:38.633Z,17.23
2022-09-15T08:57:38.662Z,17.13
2022-09-15T08:58:38.666Z,17.18
2022-09-15T08:59:38.662Z,17.17
2022-09-15T09:00:38.584Z,17.14
2022-09-15T09:01:38.659Z,17.04
2022-09-15T09:02:38.641Z,16.81
2022-09-15T09:03:38.712Z,16.71
2022-09-15T09:04:38.574Z,16.50
2022-09-15T09:05:38.693Z,16.44
2022-09-15T09:06:38.596Z,16.30
2022-09-15T10:35:28.491Z,16.50
2022-09-15T10:36:29.781Z,16.44
2022-09-15T10:37:29.716Z,16.55
2022-09-15T10:38:29.655Z,16.60
2022-09-15T10:39:29.660Z,16.59
2022-09-15T10:40:29.768Z,16.70
2022-09-15T10:41:29.626Z,16.68
2022-09-15T10:42:29.640Z,16.50
2022-09-15T10:43:29.623Z,16.40
2022-09-15T10:44:29.588Z,16.52
2022-09-15T10:45:29.681Z,16.63
2022-09-15T10:46:29.723Z,16.68
2022-09-15T10:47:29.657Z,16.81
2022-09-15T10:48:29.637Z,16.93
2022-09-15T10:49:29.630Z,17.14
2022-09-15T10:50:29.731Z,17.32
2022-09-15T10:51:30.187Z,17.23
2022-09-15T10:52:29.641Z,17.23
2022-09-15T10:53:29.595Z,17.30
2022-09-15T10:54:29.601Z,17.30
2022-09-15T10:55:51.080Z,17.36
2022-09-15T10:56:31.586Z,17.40
2022-09-15T10:57:29.666Z,17.54
2022-09-15T10:58:29.572Z,17.48
2022-09-15T10:59:29.613Z,17.50
2022-09-15T11:00:29.575Z,17.67
2022-09-15T11:01:29.494Z,17.82
2022-09-15T11:02:29.572Z,17.97
2022-09-15T11:03:29.538Z,18.04
2022-09-15T11:04:29.529Z,17.89
2022-09-15T11:05:29.524Z,17.85
2022-09-15T11:06:29.525Z,17.95
2022-09-15T11:07:29.539Z,18.04
2022-09-15T11:08:30.519Z,18.04
2022-09-15T11:09:29.483Z,18.12
2022-09-15T11:10:29.473Z,17.99
2022-09-15T11:11:29.494Z,18.07
2022-09-15T11:12:29.668Z,17.82
2022-09-15T11:13:29.522Z,18.02
2022-09-15T11:14:29.468Z,18.13
2022-09-15T11:15:29.480Z,18.22
2022-09-15T11:16:29.461Z,18.34
2022-09-15T11:17:29.344Z,18.33
2022-09-15T11:18:29.418Z,18.28
2022-09-15T11:19:29.337Z,18.46
2022-09-15T11:20:29.345Z,18.42
2022-09-15T11:21:29.450Z,18.43
2022-09-15T11:22:29.458Z,18.25
2022-09-15T11:23:29.422Z,18.09
2022-09-15T11:24:29.532Z,18.22
2022-09-15T11:25:29.406Z,18.27
2022-09-15T11:26:29.442Z,18.39
2022-09-15T11:27:29.465Z,18.61
2022-09-15T11:28:29.466Z,18.59
2022-09-15T11:29:29.486Z,18.72
2022-09-15T11:30:29.372Z,18.79
2022-09-15T11:31:29.402Z,18.91
2022-09-15T11:32:29.396Z,18.68
2022-09-15T11:33:29.307Z,18.44
2022-09-15T11:34:29.455Z,18.25
2022-09-15T11:35:29.358Z,18.34
2022-09-15T11:36:29.296Z,18.44
2022-09-15T11:37:29.318Z,18.55
2022-09-15T11:38:29.338Z,18.57
2022-09-15T11:39:29.202Z,18.50
2022-09-15T11:40:29.355Z,18.54
2022-09-15T11:41:29.224Z,18.43
2022-09-15T11:42:29.196Z,18.34
2022-09-15T11:43:29.234Z,18.40
2022-09-15T11:44:29.186Z,18.43
2022-09-15T11:45:29.285Z,18.61
2022-09-15T11:46:29.226Z,18.68
2022-09-15T11:47:29.203Z,18.76
2022-09-15T11:48:29.253Z,18.90
2022-09-15T11:49:29.470Z,18.80
2022-09-15T11:50:29.223Z,18.79
2022-09-15T11:51:32.306Z,18.99
2022-09-15T11:52:29.240Z,19.02
2022-09-15T11:53:29.147Z,19.20
2022-09-15T11:54:31.512Z,19.08
2022-09-15T11:55:30.142Z,18.98
2022-09-15T11:56:29.273Z,18.92
2022-09-15T11:57:29.177Z,18.72
2022-09-15T11:58:29.181Z,18.64
2022-09-15T11:59:29.119Z,18.57
2022-09-15T12:00:29.027Z,18.72
2022-09-15T12:01:29.093Z,18.70
2022-09-15T12:02:29.221Z,18.72
2022-09-15T12:03:29.177Z,18.76
2022-09-15T12:04:29.084Z,18.72
2022-09-15T12:05:29.016Z,18.64
2022-09-15T12:06:29.021Z,18.67
2022-09-15T12:07:29.060Z,18.72
2022-09-15T12:08:28.995Z,18.72
2022-09-15T12:09:29.111Z,18.70
2022-09-15T12:10:29.104Z,18.67
2022-09-15T12:11:29.051Z,18.46
2022-09-15T12:12:30.871Z,18.28
2022-09-15T12:13:29.060Z,18.17
2022-09-15T12:14:29.038Z,18.15
2022-09-15T12:15:29.657Z,18.07
2022-09-15T12:16:29.081Z,17.95
2022-09-15T12:17:29.032Z,18.15
2022-09-15T12:18:43.877Z,18.03
2022-09-15T12:19:30.939Z,17.82
2022-09-15T12:20:29.002Z,17.78
2022-09-15T12:21:29.001Z,17.69
2022-09-15T12:22:28.979Z,17.64
2022-09-15T12:23:29.331Z,17.66
2022-09-15T12:24:28.875Z,17.59
2022-09-15T12:25:28.931Z,17.67
2022-09-15T12:26:28.887Z,17.76
2022-09-15T12:27:28.855Z,17.87
2022-09-15T12:28:28.930Z,17.92
2022-09-15T12:29:29.098Z,18.00
2022-09-15T12:30:28.934Z,18.18
2022-09-15T12:31:28.964Z,18.13
2022-09-15T12:32:28.916Z,18.13
2022-09-15T12:33:28.913Z,18.09
2022-09-15T12:34:28.957Z,18.03
2022-09-15T12:35:28.924Z,18.15
2022-09-15T12:36:28.896Z,18.25
2022-09-15T12:37:28.874Z,18.27
2022-09-15T12:38:28.850Z,18.29
2022-09-15T12:39:28.987Z,18.31
2022-09-15T12:40:29.084Z,18.34
2022-09-15T12:41:28.740Z,18.29
2022-09-15T12:42:28.740Z,18.27
2022-09-15T12:43:28.761Z,18.29
2022-09-15T12:44:28.772Z,18.28
2022-09-15T12:45:28.754Z,18.33
2022-09-15T12:46:28.870Z,18.24
2022-09-15T12:47:28.813Z,18.28
2022-09-15T12:48:28.740Z,18.29
2022-09-15T12:49:28.731Z,18.25
2022-09-15T12:50:28.898Z,18.31
2022-09-15T12:51:28.774Z,18.27
2022-09-15T12:52:29.000Z,18.34
2022-09-15T12:53:28.786Z,18.25
2022-09-15T12:54:28.781Z,18.31
2022-09-15T12:55:28.727Z,18.25
2022-09-15T12:56:28.783Z,18.22
2022-09-15T12:57:28.740Z,18.18
2022-09-15T12:58:28.760Z,18.19
2022-09-15T12:59:28.783Z,18.10
2022-09-15T13:00:28.772Z,18.13
2022-09-15T13:01:28.935Z,18.07
2022-09-15T13:02:28.915Z,17.87
2022-09-15T13:03:28.669Z,17.89
2022-09-15T13:04:28.654Z,17.74
2022-09-15T13:05:28.734Z,17.67
2022-09-15T13:06:28.670Z,17.50
2022-09-15T13:07:28.740Z,17.53
2022-09-15T13:08:28.628Z,17.36
2022-09-15T13:09:28.672Z,17.29
2022-09-15T13:10:28.632Z,17.22
2022-09-15T13:11:28.675Z,17.35
2022-09-15T13:12:28.653Z,17.28
2022-09-15T13:13:31.140Z,17.18
2022-09-15T13:14:28.573Z,17.06
2022-09-15T13:15:28.648Z,16.99
2022-09-15T13:16:28.612Z,17.08
2022-09-15T13:17:28.571Z,17.10
2022-09-15T13:18:28.542Z,17.10
2022-09-15T13:19:28.595Z,17.10
2022-09-15T13:20:28.493Z,17.08
2022-09-15T13:21:28.457Z,17.04
2022-09-15T13:22:28.672Z,16.99
2022-09-15T13:23:28.502Z,16.99
2022-09-15T13:24:28.479Z,17.06
2022-09-15T13:25:28.512Z,16.98
2022-09-15T13:26:28.530Z,16.96
2022-09-15T13:27:28.565Z,17.06
2022-09-15T13:28:28.502Z,17.06
2022-09-15T13:29:28.547Z,17.06
2022-09-15T13:30:28.502Z,17.08
2022-09-15T13:31:28.508Z,17.26
2022-09-15T13:32:28.481Z,17.28
2022-09-15T13:35:02.241Z,17.35
2022-09-15T13:35:30.384Z,17.40
2022-09-15T13:38:03.345Z,17.44
2022-09-15T13:38:32.042Z,17.57
2022-09-15T13:39:29.419Z,17.55
2022-09-15T13:40:28.551Z,17.67
2022-09-15T13:41:28.544Z,17.76
2022-09-15T13:42:28.304Z,17.89
2022-09-15T13:43:28.318Z,18.03
2022-09-15T13:44:29.404Z,17.99
2022-09-15T13:45:28.323Z,18.10
2022-09-15T13:46:28.419Z,18.04
2022-09-15T13:47:28.373Z,17.92
2022-09-15T13:48:28.365Z,17.88
2022-09-15T13:49:28.389Z,18.04
2022-09-15T13:50:28.352Z,18.09
2022-09-15T13:51:28.350Z,17.99
2022-09-15T13:52:28.323Z,17.89
2022-09-15T13:53:28.351Z,17.95
2022-09-15T13:54:28.331Z,18.10
2022-09-15T13:55:28.346Z,18.04
2022-09-15T13:56:28.311Z,17.92
2022-09-15T13:59:30.640Z,18.06
2022-09-15T14:00:29.448Z,17.95
2022-09-15T14:01:28.404Z,18.07
2022-09-15T14:02:29.223Z,18.18
2022-09-15T14:03:28.231Z,18.21
2022-09-15T14:04:28.276Z,18.15
2022-09-15T14:05:28.213Z,18.13
2022-09-15T14:06:28.207Z,18.28
2022-09-15T14:07:28.229Z,18.22
2022-09-15T14:08:28.204Z,18.18
2022-09-15T14:09:28.197Z,18.34
2022-09-15T14:10:28.236Z,18.29
2022-09-15T14:11:28.228Z,18.36
2022-09-15T14:12:29.200Z,18.43
2022-09-15T14:13:28.213Z,18.24
2022-09-15T14:14:28.673Z,18.34
2022-09-15T14:15:28.181Z,18.33
2022-09-15T14:16:28.218Z,18.33
2022-09-15T14:17:28.536Z,18.47
2022-09-15T14:18:28.250Z,18.52
2022-09-15T14:19:28.069Z,18.67
2022-09-15T14:20:28.097Z,18.70
2022-09-15T14:21:28.075Z,18.67
2022-09-15T14:22:28.108Z,18.65
2022-09-15T14:23:28.059Z,18.79
2022-09-15T14:24:28.040Z,18.83
2022-09-15T14:25:28.019Z,18.77